createdAt,value
2023-03-14T00:00:13.420Z,95898.88
2023-03-14T00:02:40.136Z,95888.94
2023-03-14T00:05:07.241Z,95903.91
2023-03-14T00:07:38.196Z,95912.19
2023-03-14T00:10:05.897Z,95917.81
2023-03-14T00:12:32.884Z,95934.88
2023-03-14T00:14:59.600Z,95944.06
2023-03-14T00:17:26.210Z,95937.84
2023-03-14T00:19:53.267Z,95916.56
2023-03-14T00:22:19.921Z,95921.97
2023-03-14T00:24:46.551Z,95919.50
2023-03-14T00:27:13.184Z,95915.19
2023-03-14T00:29:39.827Z,95917.66
2023-03-14T00:32:06.442Z,95909.66
2023-03-14T00:34:33.649Z,95896.63
2023-03-14T00:37:00.282Z,95916.16
2023-03-14T00:39:26.927Z,95916.56
2023-03-14T00:41:53.559Z,95927.97
2023-03-14T00:44:20.186Z,95927.78
2023-03-14T00:46:46.862Z,95917.25
2023-03-14T00:49:13.546Z,95919.94
2023-03-14T00:51:40.203Z,95923.88
2023-03-14T00:54:06.847Z,95935.94
2023-03-14T00:56:33.481Z,95925.63
2023-03-14T00:59:00.329Z,95924.16
2023-03-14T01:01:27.027Z,95947.50
2023-03-14T01:03:54.327Z,95949.94
2023-03-14T01:06:25.747Z,95942.41
2023-03-14T01:08:52.471Z,95936.94
2023-03-14T01:11:24.022Z,95946.56
2023-03-14T01:13:50.673Z,95943.41
2023-03-14T01:16:17.417Z,95942.03
2023-03-14T01:18:44.420Z,95957.94
2023-03-14T01:21:18.557Z,95960.81
2023-03-14T01:23:45.220Z,95938.31
2023-03-14T01:26:12.670Z,95939.22
2023-03-14T01:28:39.405Z,95942.19
2023-03-14T01:31:07.446Z,95952.47
2023-03-14T01:33:34.119Z,95933.97
2023-03-14T01:36:00.846Z,95931.34
2023-03-14T01:38:30.258Z,95921.66
2023-03-14T01:40:56.947Z,95923.78
2023-03-14T01:43:23.554Z,95896.31
2023-03-14T01:45:59.320Z,95895.31
2023-03-14T01:48:26.895Z,95885.63
2023-03-14T01:50:53.644Z,95887.78
2023-03-14T01:53:20.295Z,95869.38
2023-03-14T01:55:46.920Z,95883.91
2023-03-14T01:58:13.537Z,95884.13
2023-03-14T02:00:40.237Z,95871.63
2023-03-14T02:03:10.860Z,95869.97
2023-03-14T02:05:40.030Z,95864.56
2023-03-14T02:08:08.109Z,95851.34
2023-03-14T02:10:42.907Z,95854.03
2023-03-14T02:13:09.598Z,95850.50
2023-03-14T02:15:36.286Z,95841.59
2023-03-14T02:18:03.402Z,95849.59
2023-03-14T02:20:51.782Z,95853.91
2023-03-14T02:23:36.908Z,95827.47
2023-03-14T02:26:10.041Z,95824.25
2023-03-14T02:28:36.716Z,95791.69
2023-03-14T02:31:03.374Z,95764.78
2023-03-14T02:33:30.000Z,95741.69
2023-03-14T02:35:58.739Z,95743.84
2023-03-14T02:38:30.437Z,95726.06
2023-03-14T02:40:57.088Z,95723.78
2023-03-14T02:43:23.855Z,95704.56
2023-03-14T02:45:51.180Z,95698.81
2023-03-14T02:48:23.258Z,95710.44
2023-03-14T02:50:50.177Z,95713.13
2023-03-14T02:53:22.054Z,95711.59
2023-03-14T02:55:48.684Z,95718.13
2023-03-14T02:58:15.418Z,95731.75
2023-03-14T03:00:42.081Z,95735.19
2023-03-14T03:03:08.757Z,95716.50
2023-03-14T03:05:35.429Z,95717.69
2023-03-14T03:08:02.127Z,95708.00
2023-03-14T03:10:29.011Z,95721.94
2023-03-14T03:12:55.630Z,95711.00
2023-03-14T03:15:22.277Z,95694.22
2023-03-14T03:17:48.932Z,95700.22
2023-03-14T03:20:15.624Z,95696.78
2023-03-14T03:22:42.269Z,95687.78
2023-03-14T03:25:09.337Z,95709.31
2023-03-14T03:27:36.477Z,95705.00
2023-03-14T03:30:04.405Z,95689.91
2023-03-14T03:32:31.194Z,95693.22
2023-03-14T03:34:57.844Z,95681.63
2023-03-14T03:37:24.493Z,95671.84
2023-03-14T03:39:51.863Z,95664.34
2023-03-14T03:42:19.009Z,95670.69
2023-03-14T03:44:46.305Z,95659.84
2023-03-14T03:47:12.930Z,95660.66
2023-03-14T03:49:39.582Z,95657.94
2023-03-14T03:52:06.231Z,95677.31
2023-03-14T03:54:32.886Z,95674.28
2023-03-14T03:56:59.557Z,95670.03
2023-03-14T03:59:26.187Z,95667.78
2023-03-14T04:01:52.837Z,95652.63
2023-03-14T04:04:19.676Z,95654.75
2023-03-14T04:06:46.471Z,95658.28
2023-03-14T04:09:13.142Z,95665.09
2023-03-14T04:11:39.767Z,95655.75
2023-03-14T04:14:06.419Z,95642.69
2023-03-14T04:16:33.072Z,95659.59
2023-03-14T04:18:59.728Z,95649.69
2023-03-14T04:21:26.399Z,95656.19
2023-03-14T04:23:53.042Z,95644.94
2023-03-14T04:26:19.687Z,95616.59
2023-03-14T04:28:46.343Z,95595.81
2023-03-14T04:31:14.424Z,95582.53
2023-03-14T04:33:41.107Z,95574.53
2023-03-14T04:36:08.485Z,95571.53
2023-03-14T04:38:35.178Z,95576.00
2023-03-14T04:41:01.824Z,95577.00
2023-03-14T04:43:28.524Z,95572.75
2023-03-14T04:45:55.874Z,95572.09
2023-03-14T04:48:22.520Z,95553.97
2023-03-14T04:50:49.213Z,95557.13
2023-03-14T04:53:16.076Z,95546.91
2023-03-14T04:55:42.812Z,95539.09
2023-03-14T04:58:09.534Z,95548.03
2023-03-14T05:00:38.133Z,95536.16
2023-03-14T05:03:05.518Z,95520.38
2023-03-14T05:05:32.184Z,95515.84
2023-03-14T05:07:58.845Z,95504.97
2023-03-14T05:10:25.485Z,95491.66
2023-03-14T05:12:52.146Z,95472.56
2023-03-14T05:15:18.794Z,95482.00
2023-03-14T05:17:45.443Z,95488.56
2023-03-14T05:20:12.189Z,95486.88
2023-03-14T05:22:38.862Z,95481.75
2023-03-14T05:25:05.786Z,95480.53
2023-03-14T05:27:32.491Z,95473.69
2023-03-14T05:29:59.908Z,95480.88
2023-03-14T05:32:27.691Z,95483.25
2023-03-14T05:34:55.223Z,95475.06
2023-03-14T05:37:21.843Z,95481.66
2023-03-14T05:39:48.500Z,95496.22
2023-03-14T05:42:15.176Z,95487.00
2023-03-14T05:44:42.591Z,95485.56
2023-03-14T05:47:10.194Z,95492.50
2023-03-14T05:49:38.776Z,95493.72
2023-03-14T05:52:08.679Z,95510.16
2023-03-14T05:54:36.033Z,95496.63
2023-03-14T05:57:03.677Z,95508.78
2023-03-14T05:59:31.214Z,95504.06
2023-03-14T06:01:59.049Z,95499.50
2023-03-14T06:04:26.398Z,95509.59
2023-03-14T06:06:53.057Z,95514.88
2023-03-14T06:09:19.685Z,95513.19
2023-03-14T06:11:46.468Z,95511.81
2023-03-14T06:14:13.106Z,95509.41
2023-03-14T06:16:39.777Z,95520.13
2023-03-14T06:19:06.457Z,95530.22
2023-03-14T06:21:33.087Z,95527.16
2023-03-14T06:23:59.770Z,95538.44
2023-03-14T06:26:26.387Z,95536.63
2023-03-14T06:28:53.187Z,95541.41
2023-03-14T06:31:19.851Z,95552.91
2023-03-14T06:33:46.606Z,95564.69
2023-03-14T06:36:13.267Z,95558.38
2023-03-14T06:38:39.965Z,95558.16
2023-03-14T06:41:07.382Z,95558.41
2023-03-14T06:43:34.688Z,95563.72
2023-03-14T06:46:01.397Z,95556.13
2023-03-14T06:48:28.073Z,95561.75
2023-03-14T06:50:54.719Z,95560.13
2023-03-14T06:53:21.338Z,95566.06
2023-03-14T06:55:47.967Z,95575.97
2023-03-14T06:58:14.615Z,95590.19
2023-03-14T07:00:41.247Z,95595.56
2023-03-14T07:03:07.883Z,95604.06
2023-03-14T07:05:34.522Z,95606.38
2023-03-14T07:08:01.158Z,95610.91
2023-03-14T07:10:27.845Z,95621.78
2023-03-14T07:12:54.475Z,95611.78
2023-03-14T07:15:21.114Z,95604.88
2023-03-14T07:17:47.789Z,95604.94
2023-03-14T07:20:14.404Z,95600.63
2023-03-14T07:22:41.038Z,95601.47
2023-03-14T07:25:08.841Z,95610.09
2023-03-14T07:27:35.685Z,95618.53
2023-03-14T07:30:02.324Z,95619.53
2023-03-14T07:32:29.066Z,95627.25
2023-03-14T07:34:55.741Z,95630.66
2023-03-14T07:37:22.384Z,95635.31
2023-03-14T07:39:49.054Z,95623.28
2023-03-14T07:42:15.809Z,95631.63
2023-03-14T07:44:42.475Z,95627.66
2023-03-14T07:47:09.122Z,95639.16
2023-03-14T07:49:35.759Z,95635.13
2023-03-14T07:52:02.439Z,95637.75
2023-03-14T07:54:29.121Z,95642.41
2023-03-14T07:56:55.764Z,95655.31
2023-03-14T07:59:22.439Z,95662.31
2023-03-14T08:01:49.111Z,95661.91
2023-03-14T08:04:15.772Z,95673.19
2023-03-14T08:06:42.450Z,95669.75
2023-03-14T08:09:09.123Z,95680.19
2023-03-14T08:11:35.762Z,95678.59
2023-03-14T08:14:02.394Z,95681.00
2023-03-14T08:16:29.288Z,95678.09
2023-03-14T08:18:56.046Z,95680.34
2023-03-14T08:21:22.670Z,95686.31
2023-03-14T08:23:49.326Z,95677.28
2023-03-14T08:26:15.987Z,95687.13
2023-03-14T08:28:42.689Z,95698.34
2023-03-14T08:31:09.417Z,95704.50
2023-03-14T08:33:36.146Z,95699.38
2023-03-14T08:36:02.884Z,95708.78
2023-03-14T08:38:29.594Z,95712.16
2023-03-14T08:40:59.895Z,95713.59
2023-03-14T08:43:27.112Z,95712.78
2023-03-14T08:45:53.784Z,95716.50
2023-03-14T08:48:20.487Z,95725.16
2023-03-14T08:50:47.159Z,95720.91
2023-03-14T08:53:13.807Z,95719.50
2023-03-14T08:55:40.476Z,95724.63
2023-03-14T08:58:07.145Z,95728.22
2023-03-14T09:00:33.800Z,95735.19
2023-03-14T09:03:00.457Z,95732.59
2023-03-14T09:05:27.128Z,95729.31
2023-03-14T09:07:53.780Z,95746.00
2023-03-14T09:10:20.493Z,95750.91
2023-03-14T09:12:47.106Z,95743.97
2023-03-14T09:15:13.748Z,95752.75
2023-03-14T09:17:40.394Z,95760.13
2023-03-14T09:20:07.384Z,95780.63
2023-03-14T09:22:34.007Z,95775.97
2023-03-14T09:25:00.640Z,95776.53
2023-03-14T09:27:27.295Z,95788.03
2023-03-14T09:29:54.057Z,95797.31
2023-03-14T09:32:20.802Z,95799.97
2023-03-14T09:34:47.459Z,95800.41
2023-03-14T09:37:14.122Z,95812.91
2023-03-14T09:39:40.758Z,95827.91
2023-03-14T09:42:08.099Z,95837.00
2023-03-14T09:44:37.426Z,95842.81
2023-03-14T09:47:06.164Z,95861.66
2023-03-14T09:49:34.685Z,95834.50
2023-03-14T09:52:04.333Z,95851.19
2023-03-14T09:54:36.075Z,95845.84
2023-03-14T09:57:03.435Z,95857.25
2023-03-14T09:59:30.369Z,95877.16
2023-03-14T10:02:03.335Z,95893.19
2023-03-14T10:04:29.975Z,95916.38
2023-03-14T10:06:56.775Z,95907.78
2023-03-14T10:09:24.223Z,95913.81
2023-03-14T10:11:50.858Z,95925.00
2023-03-14T10:14:17.615Z,95942.78
2023-03-14T10:16:45.379Z,95917.56
2023-03-14T10:19:13.696Z,95916.22
2023-03-14T10:21:41.540Z,95929.44
2023-03-14T10:24:19.139Z,95939.06
2023-03-14T10:26:50.591Z,95954.44
2023-03-14T10:29:17.284Z,95964.03
2023-03-14T10:31:54.255Z,95973.97
2023-03-14T10:34:31.882Z,96006.78
2023-03-14T10:37:00.389Z,95992.63
2023-03-14T10:39:46.624Z,95999.94
2023-03-14T10:42:31.148Z,95990.56
2023-03-14T10:44:59.894Z,96003.53
2023-03-14T10:47:27.417Z,96019.16
2023-03-14T10:49:54.105Z,96020.88
2023-03-14T10:52:26.344Z,96025.41
2023-03-14T10:54:59.376Z,96022.34
2023-03-14T10:57:26.239Z,96025.28
2023-03-14T10:59:53.120Z,96018.34
2023-03-14T11:02:50.398Z,96016.34
2023-03-14T11:05:38.206Z,96032.91
2023-03-14T11:08:12.951Z,96024.78
2023-03-14T11:10:40.033Z,96024.97
2023-03-14T11:13:22.479Z,96027.88
2023-03-14T11:16:00.716Z,96037.75
2023-03-14T11:18:51.039Z,96039.78
2023-03-14T11:21:39.891Z,96032.22
2023-03-14T11:24:48.691Z,96063.50
2023-03-14T11:27:44.450Z,96068.25
2023-03-14T11:30:24.539Z,96080.59
2023-03-14T11:33:02.247Z,96072.03
2023-03-14T11:35:48.749Z,96086.44
2023-03-14T11:38:29.477Z,96087.75
2023-03-14T11:40:57.583Z,96085.31
2023-03-14T11:43:33.502Z,96093.78
2023-03-14T11:46:04.944Z,96117.63
2023-03-14T11:48:34.571Z,96137.69
2023-03-14T11:51:01.204Z,96134.72
2023-03-14T11:53:40.744Z,96142.13
2023-03-14T11:56:18.773Z,96186.47
2023-03-14T11:58:55.206Z,96212.88
2023-03-14T12:01:21.839Z,96253.72
2023-03-14T12:04:21.231Z,96273.19
2023-03-14T12:06:49.433Z,96269.56
2023-03-14T12:09:16.900Z,96292.38
2023-03-14T12:12:00.803Z,96295.22
2023-03-14T12:14:30.172Z,96301.09
2023-03-14T12:16:58.631Z,96327.91
2023-03-14T12:19:27.976Z,96329.75
2023-03-14T12:22:00.104Z,96342.91
2023-03-14T12:24:31.688Z,96360.03
2023-03-14T12:27:02.319Z,96352.56
2023-03-14T12:29:28.969Z,96358.34
2023-03-14T12:32:01.744Z,96361.47
2023-03-14T12:34:35.646Z,96354.78
2023-03-14T12:37:10.231Z,96355.97
2023-03-14T12:39:51.964Z,96357.41
2023-03-14T12:42:21.893Z,96341.38
2023-03-14T12:44:51.984Z,96335.34
2023-03-14T12:47:18.482Z,96319.03
2023-03-14T12:49:48.093Z,96306.53
2023-03-14T12:52:20.429Z,96306.22
2023-03-14T12:54:59.445Z,96303.66
2023-03-14T12:57:39.894Z,96308.09
2023-03-14T13:00:22.154Z,96297.25
2023-03-14T13:02:49.628Z,96289.06
2023-03-14T13:05:25.670Z,96282.09
2023-03-14T13:07:55.764Z,96280.03
2023-03-14T13:10:25.566Z,96270.81
2023-03-14T13:12:52.087Z,96262.84
2023-03-14T13:15:25.662Z,96256.66
2023-03-14T13:17:53.122Z,96249.84
2023-03-14T13:20:23.875Z,96237.97
2023-03-14T13:22:50.606Z,96231.28
2023-03-14T13:25:17.279Z,96229.91
2023-03-14T13:27:44.003Z,96220.69
2023-03-14T13:30:24.856Z,96222.38
2023-03-14T13:32:52.237Z,96219.22
2023-03-14T13:35:29.816Z,96216.06
2023-03-14T13:38:10.487Z,96207.22
2023-03-14T13:40:38.059Z,96203.00
2023-03-14T13:43:06.068Z,96193.81
2023-03-14T13:45:32.693Z,96187.41
2023-03-14T13:47:59.317Z,96191.09
2023-03-14T13:50:25.969Z,96196.47
2023-03-14T13:52:56.557Z,96187.66
2023-03-14T13:55:23.182Z,96187.88
2023-03-14T13:57:51.441Z,96183.22
2023-03-14T14:00:25.645Z,96178.38
2023-03-14T14:02:52.277Z,96166.94
2023-03-14T14:05:18.937Z,96188.13
2023-03-14T14:07:45.562Z,96186.31
2023-03-14T14:10:13.876Z,96197.69
2023-03-14T14:12:44.853Z,96201.00
2023-03-14T14:15:13.804Z,96212.72
2023-03-14T14:17:45.716Z,96224.78
2023-03-14T14:20:27.897Z,96219.72
2023-03-14T14:22:54.536Z,96231.75
2023-03-14T14:25:21.183Z,96229.91
2023-03-14T14:27:49.594Z,96229.09
2023-03-14T14:30:19.163Z,96214.88
2023-03-14T14:32:47.009Z,96219.69
2023-03-14T14:35:26.685Z,96218.78
2023-03-14T14:37:53.358Z,96230.03
2023-03-14T14:40:24.842Z,96247.63
2023-03-14T14:42:51.524Z,96255.38
2023-03-14T14:45:21.782Z,96270.28
2023-03-14T14:47:55.137Z,96289.91
2023-03-14T14:50:32.737Z,96300.72
2023-03-14T14:53:00.466Z,96309.81
2023-03-14T14:55:34.674Z,96324.06
2023-03-14T14:58:20.892Z,96303.44
2023-03-14T15:01:12.425Z,96301.97
2023-03-14T15:03:39.083Z,96298.84
2023-03-14T15:06:05.899Z,96297.44
2023-03-14T15:08:32.611Z,96307.13
2023-03-14T15:10:59.428Z,96306.28
2023-03-14T15:13:26.144Z,96297.25
2023-03-14T15:15:52.811Z,96318.31
2023-03-14T15:18:19.508Z,96319.06
2023-03-14T15:20:46.160Z,96329.75
2023-03-14T15:23:17.098Z,96329.28
2023-03-14T15:25:54.910Z,96318.13
2023-03-14T15:28:27.114Z,96320.78
2023-03-14T15:30:54.938Z,96320.97
2023-03-14T15:33:21.755Z,96320.59
2023-03-14T15:35:48.862Z,96307.63
2023-03-14T15:38:17.914Z,96315.81
2023-03-14T15:40:44.530Z,96312.03
2023-03-14T15:43:11.217Z,96310.03
2023-03-14T15:45:37.913Z,96310.09
2023-03-14T15:48:05.180Z,96316.06
2023-03-14T15:50:31.823Z,96310.09
2023-03-14T15:52:58.465Z,96304.03
2023-03-14T15:55:25.140Z,96308.00
2023-03-14T15:57:51.865Z,96324.00
2023-03-14T16:00:19.771Z,96332.28
2023-03-14T16:02:46.414Z,96326.50
2023-03-14T16:05:13.186Z,96337.53
2023-03-14T16:07:39.951Z,96332.53
2023-03-14T16:10:07.724Z,96340.34
2023-03-14T16:12:34.592Z,96343.00
2023-03-14T16:15:01.238Z,96339.00
2023-03-14T16:17:27.883Z,96344.38
2023-03-14T16:19:54.531Z,96347.25
2023-03-14T16:22:21.263Z,96353.03
2023-03-14T16:24:47.943Z,96356.53
2023-03-14T16:27:14.591Z,96368.84
2023-03-14T16:29:42.245Z,96365.19
2023-03-14T16:32:09.315Z,96369.34
2023-03-14T16:34:38.931Z,96369.78
2023-03-14T16:37:05.674Z,96375.56
2023-03-14T16:39:32.338Z,96376.09
2023-03-14T16:41:59.356Z,96372.91
2023-03-14T16:44:26.035Z,96370.19
2023-03-14T16:46:52.678Z,96382.50
2023-03-14T16:49:19.363Z,96375.16
2023-03-14T16:51:46.008Z,96377.16
2023-03-14T16:54:12.651Z,96389.31
2023-03-14T16:56:39.440Z,96392.47
2023-03-14T16:59:06.082Z,96389.63
2023-03-14T17:01:32.800Z,96393.94
2023-03-14T17:03:59.558Z,96398.97
2023-03-14T17:06:27.562Z,96407.28
2023-03-14T17:08:54.873Z,96419.31
2023-03-14T17:11:21.620Z,96420.31
2023-03-14T17:13:48.272Z,96414.50
2023-03-14T17:16:15.008Z,96430.69
2023-03-14T17:18:41.679Z,96425.84
2023-03-14T17:21:08.325Z,96435.84
2023-03-14T17:23:35.284Z,96429.88
2023-03-14T17:26:01.983Z,96431.72
2023-03-14T17:28:28.637Z,96428.06
2023-03-14T17:31:02.565Z,96439.75
2023-03-14T17:33:29.232Z,96439.28
2023-03-14T17:35:55.882Z,96457.88
2023-03-14T17:38:22.608Z,96467.44
2023-03-14T17:40:49.626Z,96477.09
2023-03-14T17:43:16.528Z,96478.75
2023-03-14T17:45:43.210Z,96480.94
2023-03-14T17:48:10.214Z,96492.44
2023-03-14T17:50:37.082Z,96491.44
2023-03-14T17:53:03.756Z,96489.94
2023-03-14T17:55:30.400Z,96492.50
2023-03-14T17:57:57.273Z,96496.34
2023-03-14T18:00:24.170Z,96506.84
2023-03-14T18:02:56.488Z,96506.00
2023-03-14T18:05:24.942Z,96511.66
2023-03-14T18:07:51.609Z,96512.16
2023-03-14T18:10:18.266Z,96513.66
2023-03-14T18:12:44.910Z,96524.50
2023-03-14T18:15:11.700Z,96519.53
2023-03-14T18:17:38.350Z,96534.03
2023-03-14T18:20:05.351Z,96537.19
2023-03-14T18:22:32.092Z,96534.84
2023-03-14T18:24:58.751Z,96541.19
2023-03-14T18:27:25.438Z,96543.88
2023-03-14T18:29:52.204Z,96547.84
2023-03-14T18:32:18.888Z,96557.97
2023-03-14T18:34:45.671Z,96561.69
2023-03-14T18:37:12.344Z,96567.84
2023-03-14T18:39:39.034Z,96561.34
2023-03-14T18:42:05.673Z,96558.72
2023-03-14T18:44:32.333Z,96565.03
2023-03-14T18:46:59.075Z,96579.19
2023-03-14T18:49:26.202Z,96580.22
2023-03-14T18:51:54.206Z,96581.56
2023-03-14T18:54:20.833Z,96590.56
2023-03-14T18:56:47.486Z,96600.03
2023-03-14T18:59:14.159Z,96598.38
2023-03-14T19:01:40.837Z,96594.22
2023-03-14T19:04:09.508Z,96607.38
2023-03-14T19:06:37.500Z,96610.03
2023-03-14T19:09:04.159Z,96619.34
2023-03-14T19:11:30.819Z,96620.53
2023-03-14T19:13:57.483Z,96621.38
2023-03-14T19:16:24.263Z,96625.38
2023-03-14T19:18:51.001Z,96621.53
2023-03-14T19:21:26.677Z,96622.19
2023-03-14T19:23:53.330Z,96626.34
2023-03-14T19:26:20.068Z,96627.53
2023-03-14T19:28:46.690Z,96627.69
2023-03-14T19:31:13.415Z,96631.38
2023-03-14T19:33:40.163Z,96624.03
2023-03-14T19:36:07.358Z,96625.38
2023-03-14T19:38:34.076Z,96610.53
2023-03-14T19:41:04.422Z,96619.88
2023-03-14T19:43:31.050Z,96623.84
2023-03-14T19:45:57.778Z,96626.53
2023-03-14T19:48:24.463Z,96627.00
2023-03-14T19:50:51.154Z,96620.19
2023-03-14T19:53:17.989Z,96630.69
2023-03-14T19:55:44.642Z,96632.84
2023-03-14T19:58:11.322Z,96641.16
2023-03-14T20:00:38.003Z,96643.19
2023-03-14T20:03:04.698Z,96631.38
2023-03-14T20:05:31.399Z,96640.53
2023-03-14T20:07:58.049Z,96640.69
2023-03-14T20:10:24.686Z,96649.19
2023-03-14T20:12:51.451Z,96656.69
2023-03-14T20:15:18.193Z,96656.19
2023-03-14T20:17:46.175Z,96655.00
2023-03-14T20:20:12.929Z,96659.19
2023-03-14T20:22:39.643Z,96652.34
2023-03-14T20:25:06.684Z,96657.00
2023-03-14T20:27:33.779Z,96665.84
2023-03-14T20:30:00.426Z,96662.50
2023-03-14T20:32:27.140Z,96656.69
2023-03-14T20:34:53.897Z,96664.53
2023-03-14T20:37:21.153Z,96667.84
2023-03-14T20:39:47.869Z,96669.19
2023-03-14T20:42:14.716Z,96658.34
2023-03-14T20:44:41.371Z,96661.50
2023-03-14T20:47:08.020Z,96664.16
2023-03-14T20:49:34.708Z,96661.00
2023-03-14T20:52:01.397Z,96654.50
2023-03-14T20:54:28.075Z,96661.34
2023-03-14T20:56:54.784Z,96661.69
2023-03-14T20:59:21.442Z,96666.66
2023-03-14T21:01:48.228Z,96668.31
2023-03-14T21:04:15.788Z,96678.84
2023-03-14T21:06:45.459Z,96680.47
2023-03-14T21:09:12.154Z,96677.66
2023-03-14T21:11:39.015Z,96690.72
2023-03-14T21:14:05.649Z,96684.88
2023-03-14T21:16:32.384Z,96679.72
2023-03-14T21:18:59.068Z,96679.03
2023-03-14T21:21:25.739Z,96682.50
2023-03-14T21:23:52.414Z,96689.84
2023-03-14T21:26:19.074Z,96679.03
2023-03-14T21:28:45.700Z,96689.09
2023-03-14T21:31:12.595Z,96687.81
2023-03-14T21:33:39.269Z,96681.16
2023-03-14T21:36:06.357Z,96691.84
2023-03-14T21:38:33.037Z,96672.88
2023-03-14T21:40:59.684Z,96676.66
2023-03-14T21:43:26.504Z,96676.91
2023-03-14T21:45:53.143Z,96674.09
2023-03-14T21:48:20.733Z,96670.06
2023-03-14T21:50:47.502Z,96664.44
2023-03-14T21:53:14.154Z,96663.91
2023-03-14T21:55:44.537Z,96660.88
2023-03-14T21:58:11.308Z,96670.63
2023-03-14T22:00:37.953Z,96663.69
2023-03-14T22:03:12.941Z,96684.34
2023-03-14T22:05:43.978Z,96682.81
2023-03-14T22:08:11.184Z,96678.53
2023-03-14T22:10:46.022Z,96667.34
2023-03-14T22:13:12.653Z,96674.97
2023-03-14T22:15:39.300Z,96672.94
2023-03-14T22:18:05.953Z,96673.28
2023-03-14T22:20:32.576Z,96676.09
2023-03-14T22:22:59.264Z,96674.25
2023-03-14T22:25:25.894Z,96664.38
2023-03-14T22:27:52.553Z,96660.97
2023-03-14T22:30:19.217Z,96670.72
2023-03-14T22:32:45.880Z,96686.25
2023-03-14T22:35:12.537Z,96662.53
2023-03-14T22:37:41.365Z,96659.69
2023-03-14T22:40:08.706Z,96663.06
2023-03-14T22:42:35.348Z,96670.88
2023-03-14T22:45:02.089Z,96674.94
2023-03-14T22:47:28.725Z,96687.03
2023-03-14T22:49:55.377Z,96682.72
2023-03-14T22:52:22.071Z,96694.41
2023-03-14T22:54:48.735Z,96691.22
2023-03-14T22:57:15.375Z,96683.19
2023-03-14T22:59:42.068Z,96687.00
2023-03-14T23:02:08.751Z,96703.00
2023-03-14T23:04:35.382Z,96719.66
2023-03-14T23:07:02.056Z,96711.19
2023-03-14T23:09:28.703Z,96717.81
2023-03-14T23:11:55.357Z,96736.03
2023-03-14T23:14:22.022Z,96732.41
2023-03-14T23:16:49.417Z,96752.34
2023-03-14T23:19:16.064Z,96749.78
2023-03-14T23:21:42.726Z,96750.03
2023-03-14T23:24:09.415Z,96753.03
2023-03-14T23:26:36.120Z,96755.09
2023-03-14T23:29:02.944Z,96753.59
2023-03-14T23:31:29.609Z,96759.25
2023-03-14T23:33:56.253Z,96756.16
2023-03-14T23:36:22.907Z,96756.31
2023-03-14T23:38:49.581Z,96751.00
2023-03-14T23:41:16.216Z,96755.34
2023-03-14T23:43:45.942Z,96754.88
2023-03-14T23:46:12.905Z,96756.31
2023-03-14T23:48:39.713Z,96762.34
2023-03-14T23:51:08.013Z,96749.53
2023-03-14T23:53:34.636Z,96768.06
2023-03-14T23:56:01.324Z,96763.06
2023-03-14T23:58:27.972Z,96767.06
